Список аэропортов
Фактическая погода:

25 июня, 11:00
Температура: +24°C (+24.0*)
Ветер: сев.-западный 3 м/с
Давление: *760 мм
неб. облачность
1050 м
Время (МСК)Темп. СВетерВлажностьДавлениеОблачностьОсадки
09:00+22ЮВ, 1 м/с61%1012 гПаясно
10:00+24ЮВ, 1 м/с52%1012 гПаясно
11:00+25СВ, 1 м/с49%1012 гПамалооблачно
12:00+26СЗ, 2 м/с47%1012 гПамалооблачно
13:00+27СЗ, 3 м/с46%1012 гПаясно
14:00+28СЗ, 3 м/с45%1012 гПамалооблачно
15:00+28СЗ, 5 м/с44%1012 гПас прояснениями
16:00+25СЗ, 5 м/с61%1012 гПаоблачнодождь
17:00+25СЗ, 6 м/с54%1013 гПаясно
18:00+24СЗ, 5 м/с56%1014 гПас прояснениями
19:00+23С, 4 м/с62%1015 гПамалооблачно
20:00+21С, 2 м/с70%1016 гПамалооблачно
21:00+20С, 2 м/с79%1017 гПамалооблачно
22:00+19С, 1 м/с87%1017 гПаясно
23:00+18Штиль 92%1017 гПаясно
26 июня
00:00+17ЮЗ, 1 м/с93%1018 гПамалооблачно
01:00+17ЮЗ, 1 м/с93%1018 гПас прояснениями
02:00+16ЮЗ, 1 м/с95%1018 гПас прояснениями
03:00+15Ю, 1 м/с97%1018 гПас прояснениями
04:00+15ЮЗ, 1 м/с98%1018 гПас прояснениями
05:00+15Ю, 1 м/с98%1019 гПамалооблачно
06:00+16Ю, 1 м/с93%1018 гПамалооблачно
07:00+20ЮВ, 3 м/с84%1018 гПаясно
08:00+22ЮВ, 4 м/с69%1018 гПамалооблачно
09:00+23ЮВ, 4 м/с62%1017 гПамалооблачно
10:00+24ЮВ, 4 м/с58%1017 гПамалооблачно
11:00+25ЮВ, 4 м/с54%1016 гПамалооблачно
12:00+26В, 4 м/с51%1016 гПаясно
13:00+27В, 4 м/с48%1016 гПаясно
14:00+27В, 5 м/с46%1015 гПаясно
15:00+27В, 5 м/с46%1015 гПамалооблачно
16:00+27В, 5 м/с48%1015 гПас прояснениями
17:00+27В, 5 м/с50%1015 гПас прояснениями
18:00+26ЮВ, 5 м/с52%1015 гПас прояснениями
19:00+25ЮВ, 4 м/с56%1014 гПас прояснениями
20:00+24В, 4 м/с60%1015 гПас прояснениями
21:00+23В, 4 м/с64%1015 гПамалооблачно
22:00+22В, 3 м/с67%1015 гПамалооблачно
23:00+21ЮВ, 4 м/с67%1014 гПаясно
27 июня
00:00+20ЮВ, 4 м/с74%1014 гПаясно
01:00+20ЮВ, 5 м/с82%1014 гПаясно
02:00+19ЮВ, 4 м/с86%1014 гПаясно
03:00+18В, 3 м/с89%1014 гПаясно
04:00+18В, 3 м/с90%1014 гПаясно
05:00+17В, 2 м/с92%1014 гПаясно
06:00+18ЮВ, 2 м/с87%1014 гПаясно
07:00+20ЮВ, 3 м/с78%1013 гПаясно
08:00+22В, 3 м/с70%1013 гПаясно
09:00+24В, 4 м/с62%1012 гПаясно